createdAt,value
2022-08-10T00:00:05.317Z,5.77
2022-08-10T00:02:58.830Z,5.67
2022-08-10T00:05:52.534Z,5.90
2022-08-10T00:08:49.349Z,6.20
2022-08-10T00:11:38.680Z,5.73
2022-08-10T00:14:34.309Z,6.60
2022-08-10T00:17:23.827Z,6.70
2022-08-10T00:20:15.401Z,5.60
2022-08-10T00:23:04.637Z,6.03
2022-08-10T00:25:54.009Z,6.83
2022-08-10T00:28:43.339Z,5.93
2022-08-10T00:31:32.676Z,5.57
2022-08-10T00:34:41.971Z,6.43
2022-08-10T00:37:32.694Z,6.90
2022-08-10T00:40:35.179Z,5.50
2022-08-10T00:43:27.303Z,6.53
2022-08-10T00:46:16.662Z,8.00
2022-08-10T00:49:13.392Z,7.60
2022-08-10T00:52:03.424Z,9.80
2022-08-10T00:54:54.897Z,7.93
2022-08-10T00:57:45.517Z,10.43
2022-08-10T01:00:44.629Z,7.67
2022-08-10T01:04:40.196Z,8.80
2022-08-10T01:06:55.334Z,8.10
2022-08-10T01:09:56.913Z,7.83
2022-08-10T01:12:55.430Z,8.50
2022-08-10T01:15:54.960Z,9.07
2022-08-10T01:18:54.913Z,8.87
2022-08-10T01:22:13.298Z,8.77
2022-08-10T01:25:19.434Z,8.33
2022-08-10T01:28:39.728Z,9.23
2022-08-10T01:31:35.886Z,9.33
2022-08-10T01:34:31.828Z,10.50
2022-08-10T01:37:24.969Z,11.20
2022-08-10T01:40:16.938Z,8.83
2022-08-10T01:43:10.297Z,9.80
2022-08-10T01:46:03.154Z,10.50
2022-08-10T01:48:56.514Z,9.53
2022-08-10T01:51:50.888Z,8.13
2022-08-10T01:54:43.336Z,10.33
2022-08-10T01:57:34.847Z,9.20
2022-08-10T02:00:25.088Z,8.47
2022-08-10T02:03:16.559Z,7.20
2022-08-10T02:06:09.746Z,8.37
2022-08-10T02:09:06.448Z,8.43
2022-08-10T02:12:07.450Z,7.73
2022-08-10T02:15:00.640Z,8.67
2022-08-10T02:17:58.007Z,7.37
2022-08-10T02:20:53.409Z,8.20
2022-08-10T02:23:45.059Z,7.87
2022-08-10T02:26:50.550Z,8.70
2022-08-10T02:29:49.133Z,8.63
2022-08-10T02:32:40.103Z,11.17
2022-08-10T02:35:55.046Z,9.00
2022-08-10T02:38:58.065Z,9.83
2022-08-10T02:45:02.632Z,9.07
2022-08-10T02:45:25.441Z,9.17
2022-08-10T02:48:22.866Z,12.73
2022-08-10T02:51:18.744Z,15.70
2022-08-10T02:54:16.623Z,20.63
2022-08-10T02:57:17.873Z,16.53
2022-08-10T03:00:11.025Z,16.00
2022-08-10T03:03:02.831Z,16.17
2022-08-10T03:05:57.065Z,15.30
2022-08-10T03:08:48.244Z,12.63
2022-08-10T03:12:34.955Z,12.03
2022-08-10T03:14:51.573Z,10.73
2022-08-10T03:17:42.249Z,11.70
2022-08-10T03:20:48.920Z,11.47
2022-08-10T03:23:39.691Z,10.63
2022-08-10T03:26:29.084Z,10.73
2022-08-10T03:29:22.032Z,10.30
2022-08-10T03:32:13.413Z,10.77
2022-08-10T03:35:03.315Z,10.50
2022-08-10T03:37:59.012Z,10.50
2022-08-10T03:40:50.741Z,9.70
2022-08-10T03:43:40.510Z,11.43
2022-08-10T03:46:32.497Z,9.97
2022-08-10T03:49:23.680Z,7.37
2022-08-10T03:52:13.778Z,8.30
2022-08-10T03:55:03.741Z,7.10
2022-08-10T03:57:53.387Z,8.43
2022-08-10T04:00:43.484Z,8.47
2022-08-10T04:03:34.365Z,8.20
2022-08-10T04:06:23.946Z,7.37
2022-08-10T04:09:13.281Z,7.47
2022-08-10T04:12:02.834Z,7.30
2022-08-10T04:14:53.475Z,7.73
2022-08-10T04:18:04.864Z,7.33
2022-08-10T04:20:58.723Z,7.80
2022-08-10T04:23:53.317Z,8.43
2022-08-10T04:26:43.090Z,8.10
2022-08-10T04:29:32.583Z,7.83
2022-08-10T04:32:23.461Z,7.63
2022-08-10T04:35:13.947Z,8.17
2022-08-10T04:38:05.884Z,7.70
2022-08-10T04:40:55.587Z,8.37
2022-08-10T04:43:44.992Z,7.77
2022-08-10T04:46:55.548Z,8.73
2022-08-10T04:49:56.578Z,7.50
2022-08-10T04:52:46.959Z,8.33
2022-08-10T04:55:37.918Z,7.70
2022-08-10T04:58:27.076Z,7.73
2022-08-10T05:01:16.704Z,7.67
2022-08-10T05:04:35.707Z,6.17
2022-08-10T05:07:18.396Z,6.20
2022-08-10T05:10:13.364Z,6.70
2022-08-10T05:13:04.365Z,7.17
2022-08-10T05:15:54.011Z,7.07
2022-08-10T05:18:43.205Z,6.17
2022-08-10T05:21:56.383Z,6.63
2022-08-10T05:24:41.553Z,6.50
2022-08-10T05:27:30.869Z,5.90
2022-08-10T05:30:24.854Z,6.00
2022-08-10T05:33:29.579Z,6.30
2022-08-10T05:36:28.284Z,6.03
2022-08-10T05:39:19.534Z,5.70
2022-08-10T05:42:35.594Z,6.00
2022-08-10T05:46:19.014Z,5.70
2022-08-10T05:49:10.187Z,6.70
2022-08-10T05:51:59.477Z,5.93
2022-08-10T05:55:28.031Z,5.23
2022-08-10T05:58:59.085Z,5.60
2022-08-10T06:09:59.473Z,5.30
2022-08-10T06:29:03.662Z,5.30
2022-08-10T06:56:35.980Z,3.77
2022-08-10T07:03:38.254Z,4.10
2022-08-10T07:10:45.532Z,3.83
2022-08-10T07:21:41.096Z,3.40
2022-08-10T07:28:46.265Z,3.50
2022-08-10T07:31:57.178Z,3.97
2022-08-10T07:58:48.202Z,2.80
2022-08-10T08:05:58.971Z,2.87
2022-08-10T08:08:54.821Z,2.60
2022-08-10T08:44:11.121Z,2.30
2022-08-10T09:15:06.199Z,1.93
2022-08-10T09:18:04.232Z,2.10
2022-08-10T09:25:00.642Z,2.20
2022-08-10T09:36:13.563Z,1.93
2022-08-10T09:40:50.091Z,1.80
2022-08-10T09:51:34.887Z,2.00
2022-08-10T10:02:27.844Z,2.00
2022-08-10T10:09:26.924Z,2.00
2022-08-10T10:16:41.158Z,1.77
2022-08-10T10:31:40.190Z,1.60
2022-08-10T10:46:14.296Z,1.80
2022-08-10T10:53:18.339Z,1.67
2022-08-10T10:56:18.084Z,1.50
2022-08-10T11:07:10.652Z,1.52
2022-08-10T11:18:10.923Z,1.40
2022-08-10T11:25:12.174Z,1.50
2022-08-10T11:28:10.186Z,1.30
2022-08-10T11:31:12.595Z,1.50
2022-08-10T11:38:29.620Z,1.65
2022-08-10T11:57:54.900Z,1.50
2022-08-10T12:04:50.209Z,1.13
2022-08-10T12:10:02.499Z,1.30
2022-08-10T12:15:02.186Z,1.42
2022-08-10T12:22:00.009Z,1.30
2022-08-10T12:24:57.375Z,1.50
2022-08-10T12:36:18.329Z,1.40
2022-08-10T12:44:07.700Z,1.42
2022-08-10T12:53:58.696Z,1.40
2022-08-10T13:13:00.258Z,1.60
2022-08-10T13:15:51.485Z,1.30
2022-08-10T13:22:56.385Z,1.33
2022-08-10T13:30:01.570Z,1.30
2022-08-10T13:40:57.706Z,1.35
2022-08-10T13:47:52.536Z,1.50
2022-08-10T13:54:44.809Z,1.40
2022-08-10T13:57:38.269Z,1.45
2022-08-10T14:04:46.341Z,1.40
2022-08-10T14:07:40.088Z,1.42
2022-08-10T14:11:09.064Z,1.63
2022-08-10T14:14:02.131Z,1.52
2022-08-10T14:16:52.688Z,1.38
2022-08-10T14:19:44.094Z,1.50
2022-08-10T14:26:44.797Z,1.50
2022-08-10T14:29:41.137Z,1.52
2022-08-10T14:32:33.221Z,1.40
2022-08-10T14:36:19.385Z,1.30
2022-08-10T14:38:38.366Z,1.38
2022-08-10T14:42:01.748Z,1.50
2022-08-10T14:44:47.920Z,1.52
2022-08-10T14:47:55.351Z,1.38
2022-08-10T14:50:56.212Z,1.25
2022-08-10T14:53:55.418Z,1.40
2022-08-10T14:56:48.959Z,1.38
2022-08-10T15:00:24.559Z,1.25
2022-08-10T15:02:55.999Z,1.50
2022-08-10T15:05:48.256Z,1.30
2022-08-10T15:08:39.355Z,1.30
2022-08-10T15:12:14.264Z,1.50
2022-08-10T15:14:45.778Z,1.70
2022-08-10T15:17:39.843Z,1.50
2022-08-10T15:20:31.654Z,1.60
2022-08-10T15:23:31.140Z,1.30
2022-08-10T15:26:28.500Z,1.70
2022-08-10T15:29:24.383Z,1.50
2022-08-10T15:32:33.141Z,1.23
2022-08-10T15:35:42.812Z,1.50
2022-08-10T15:38:35.188Z,1.50
2022-08-10T15:41:58.955Z,1.40
2022-08-10T15:44:50.546Z,1.30
2022-08-10T15:47:44.942Z,1.20
2022-08-10T15:50:40.950Z,1.40
2022-08-10T15:53:46.895Z,1.60
2022-08-10T15:56:46.182Z,2.00
2022-08-10T15:59:41.798Z,1.60
2022-08-10T16:02:37.116Z,1.63
2022-08-10T16:06:01.106Z,1.53
2022-08-10T16:08:56.714Z,1.40
2022-08-10T16:12:04.602Z,1.70
2022-08-10T16:14:56.095Z,1.57
2022-08-10T16:17:54.564Z,1.70
2022-08-10T16:20:53.564Z,1.90
2022-08-10T16:24:14.255Z,1.87
2022-08-10T16:26:59.139Z,2.00
2022-08-10T16:29:56.582Z,1.77
2022-08-10T16:32:47.606Z,1.80
2022-08-10T16:35:38.768Z,1.53
2022-08-10T16:38:29.159Z,1.60
2022-08-10T16:42:04.506Z,1.50
2022-08-10T16:44:37.757Z,1.40
2022-08-10T16:47:30.156Z,1.67
2022-08-10T16:50:26.177Z,1.80
2022-08-10T16:53:18.796Z,1.50
2022-08-10T16:56:10.417Z,1.70
2022-08-10T16:59:00.758Z,1.77
2022-08-10T17:01:53.615Z,1.70
2022-08-10T17:04:46.544Z,1.70
2022-08-10T17:07:37.461Z,1.80
2022-08-10T17:10:29.699Z,1.47
2022-08-10T17:13:24.085Z,1.80
2022-08-10T17:16:14.810Z,1.80
2022-08-10T17:19:10.120Z,1.57
2022-08-10T17:22:03.992Z,1.47
2022-08-10T17:24:57.641Z,1.90
2022-08-10T17:28:05.608Z,1.47
2022-08-10T17:31:05.297Z,1.80
2022-08-10T17:34:17.456Z,1.73
2022-08-10T17:37:18.727Z,2.03
2022-08-10T17:40:14.148Z,1.80
2022-08-10T17:43:04.700Z,1.80
2022-08-10T17:45:55.806Z,1.60
2022-08-10T17:48:46.605Z,1.77
2022-08-10T17:51:41.195Z,2.07
2022-08-10T17:54:35.185Z,2.10
2022-08-10T17:57:25.464Z,2.07
2022-08-10T18:00:15.964Z,2.17
2022-08-10T18:03:06.391Z,1.80
2022-08-10T18:05:58.036Z,1.87
2022-08-10T18:08:52.682Z,2.03
2022-08-10T18:11:48.539Z,1.83
2022-08-10T18:14:39.615Z,1.87
2022-08-10T18:17:38.489Z,1.90
2022-08-10T18:20:35.987Z,1.90
2022-08-10T18:23:27.866Z,1.90
2022-08-10T18:26:20.777Z,2.50
2022-08-10T18:29:18.649Z,2.37
2022-08-10T18:32:10.662Z,2.63
2022-08-10T18:35:02.849Z,2.53
2022-08-10T18:37:54.110Z,2.50
2022-08-10T18:40:51.004Z,2.10
2022-08-10T18:44:11.128Z,2.13
2022-08-10T18:47:02.426Z,2.43
2022-08-10T18:50:00.940Z,2.53
2022-08-10T18:52:53.710Z,2.07
2022-08-10T18:56:08.727Z,2.10
2022-08-10T18:59:06.935Z,2.60
2022-08-10T19:02:15.554Z,2.20
2022-08-10T19:05:30.202Z,2.30
2022-08-10T19:08:58.000Z,2.20
2022-08-10T19:12:02.746Z,2.10
2022-08-10T19:15:01.271Z,2.20
2022-08-10T19:18:15.428Z,2.67
2022-08-10T19:21:13.197Z,2.70
2022-08-10T19:24:10.826Z,2.33
2022-08-10T19:27:11.915Z,2.40
2022-08-10T19:30:12.533Z,2.60
2022-08-10T19:33:19.694Z,2.50
2022-08-10T19:36:15.919Z,2.33
2022-08-10T19:39:17.905Z,2.60
2022-08-10T19:42:12.506Z,2.67
2022-08-10T19:46:00.556Z,2.67
2022-08-10T19:48:35.560Z,2.20
2022-08-10T19:51:30.068Z,2.47
2022-08-10T19:54:27.499Z,2.97
2022-08-10T19:57:27.369Z,2.70
2022-08-10T20:00:22.941Z,2.40
2022-08-10T20:03:22.598Z,2.57
2022-08-10T20:06:20.711Z,2.70
2022-08-10T20:09:16.423Z,2.80
2022-08-10T20:12:09.027Z,2.70
2022-08-10T20:15:07.825Z,2.97
2022-08-10T20:18:02.644Z,2.87
2022-08-10T20:20:59.678Z,2.80
2022-08-10T20:23:57.838Z,3.00
2022-08-10T20:26:50.840Z,2.50
2022-08-10T20:29:58.824Z,2.80
2022-08-10T20:32:52.395Z,2.73
2022-08-10T20:35:50.959Z,3.00
2022-08-10T20:38:47.470Z,2.60
2022-08-10T20:41:59.569Z,2.70
2022-08-10T20:45:00.495Z,2.57
2022-08-10T20:48:00.583Z,2.47
2022-08-10T20:50:55.110Z,2.63
2022-08-10T20:53:49.816Z,2.70
2022-08-10T20:56:49.641Z,2.90
2022-08-10T21:00:04.152Z,2.90
2022-08-10T21:03:21.175Z,2.80
2022-08-10T21:06:46.892Z,3.03
2022-08-10T21:09:53.792Z,3.00
2022-08-10T21:13:10.912Z,2.90
2022-08-10T21:16:11.902Z,2.60
2022-08-10T21:19:36.017Z,2.60
2022-08-10T21:22:29.533Z,2.63
2022-08-10T21:25:26.064Z,2.70
2022-08-10T21:28:50.209Z,3.20
2022-08-10T21:32:02.071Z,2.50
2022-08-10T21:35:02.995Z,3.00
2022-08-10T21:38:02.904Z,3.20
2022-08-10T21:41:56.539Z,3.10
2022-08-10T21:45:12.194Z,2.80
2022-08-10T21:48:35.595Z,3.10
2022-08-10T21:52:01.454Z,2.83
2022-08-10T21:55:16.674Z,2.97
2022-08-10T21:58:27.381Z,2.77
2022-08-10T22:01:45.495Z,2.50
2022-08-10T22:04:58.635Z,3.00
2022-08-10T22:08:08.154Z,3.10
2022-08-10T22:11:21.630Z,2.60
2022-08-10T22:14:33.741Z,2.80
2022-08-10T22:17:59.843Z,3.00
2022-08-10T22:21:24.884Z,2.70
2022-08-10T22:24:42.923Z,2.60
2022-08-10T22:27:53.263Z,2.80
2022-08-10T22:31:30.197Z,2.70
2022-08-10T22:34:49.877Z,2.70
2022-08-10T22:38:08.005Z,2.97
2022-08-10T22:41:23.550Z,3.10
2022-08-10T22:44:31.269Z,2.97
2022-08-10T22:47:40.126Z,2.83
2022-08-10T22:50:38.369Z,2.90
2022-08-10T22:53:52.163Z,2.77
2022-08-10T22:56:58.769Z,2.53
2022-08-10T22:59:49.582Z,3.10
2022-08-10T23:02:40.361Z,2.63
2022-08-10T23:05:36.349Z,2.73
2022-08-10T23:08:32.352Z,2.80
2022-08-10T23:11:24.311Z,3.00
2022-08-10T23:14:16.572Z,3.23
2022-08-10T23:18:00.762Z,3.10
2022-08-10T23:20:41.419Z,3.30
2022-08-10T23:23:36.972Z,3.23
2022-08-10T23:26:28.271Z,3.50
2022-08-10T23:29:18.280Z,3.13
2022-08-10T23:32:10.612Z,3.37
2022-08-10T23:36:31.003Z,3.60
2022-08-10T23:38:15.165Z,3.43
2022-08-10T23:41:06.327Z,3.37
2022-08-10T23:44:04.275Z,3.47
2022-08-10T23:46:55.135Z,3.60
2022-08-10T23:49:45.914Z,3.37
2022-08-10T23:52:37.202Z,3.17
2022-08-10T23:55:31.327Z,3.40
2022-08-10T23:58:35.786Z,3.60
